sensor_id;sensor_type;location;lat;lon;timestamp;P1;durP1;ratioP1;P2;durP2;ratioP2
24483;SDS011;12643;51.620;7.548;2024-01-07T00:01:39;31.60;;;17.60;;
24483;SDS011;12643;51.620;7.548;2024-01-07T00:04:14;33.67;;;17.15;;
24483;SDS011;12643;51.620;7.548;2024-01-07T00:06:42;32.15;;;17.35;;
24483;SDS011;12643;51.620;7.548;2024-01-07T00:09:12;32.80;;;17.85;;
24483;SDS011;12643;51.620;7.548;2024-01-07T00:11:43;37.38;;;18.48;;
24483;SDS011;12643;51.620;7.548;2024-01-07T00:14:12;36.15;;;18.08;;
24483;SDS011;12643;51.620;7.548;2024-01-07T00:16:42;33.03;;;17.33;;
24483;SDS011;12643;51.620;7.548;2024-01-07T00:19:11;32.80;;;17.63;;
24483;SDS011;12643;51.620;7.548;2024-01-07T00:21:41;33.38;;;18.45;;
24483;SDS011;12643;51.620;7.548;2024-01-07T00:24:12;30.50;;;17.25;;
24483;SDS011;12643;51.620;7.548;2024-01-07T00:26:40;33.65;;;18.48;;
24483;SDS011;12643;51.620;7.548;2024-01-07T00:32:00;34.45;;;18.20;;
24483;SDS011;12643;51.620;7.548;2024-01-07T00:34:31;36.10;;;18.40;;
24483;SDS011;12643;51.620;7.548;2024-01-07T00:36:59;31.33;;;17.85;;
24483;SDS011;12643;51.620;7.548;2024-01-07T00:39:27;37.30;;;19.88;;
24483;SDS011;12643;51.620;7.548;2024-01-07T00:41:56;40.53;;;21.48;;
24483;SDS011;12643;51.620;7.548;2024-01-07T00:44:27;42.13;;;21.38;;
24483;SDS011;12643;51.620;7.548;2024-01-07T00:46:56;36.28;;;20.02;;
24483;SDS011;12643;51.620;7.548;2024-01-07T00:49:24;43.47;;;19.75;;
24483;SDS011;12643;51.620;7.548;2024-01-07T00:51:55;42.65;;;22.48;;
24483;SDS011;12643;51.620;7.548;2024-01-07T00:54:24;38.78;;;21.83;;
24483;SDS011;12643;51.620;7.548;2024-01-07T00:56:55;41.33;;;20.98;;
24483;SDS011;12643;51.620;7.548;2024-01-07T00:59:28;39.80;;;21.85;;
24483;SDS011;12643;51.620;7.548;2024-01-07T01:01:59;38.90;;;21.15;;
24483;SDS011;12643;51.620;7.548;2024-01-07T01:04:27;39.58;;;21.83;;
24483;SDS011;12643;51.620;7.548;2024-01-07T01:07:02;43.22;;;23.58;;
24483;SDS011;12643;51.620;7.548;2024-01-07T01:09:30;40.50;;;22.40;;
24483;SDS011;12643;51.620;7.548;2024-01-07T01:14:30;38.28;;;21.17;;
24483;SDS011;12643;51.620;7.548;2024-01-07T01:17:00;40.05;;;21.45;;
24483;SDS011;12643;51.620;7.548;2024-01-07T01:19:29;40.53;;;22.65;;
24483;SDS011;12643;51.620;7.548;2024-01-07T01:21:57;40.72;;;22.25;;
24483;SDS011;12643;51.620;7.548;2024-01-07T01:24:27;41.55;;;21.90;;
24483;SDS011;12643;51.620;7.548;2024-01-07T01:26:55;42.80;;;21.90;;
24483;SDS011;12643;51.620;7.548;2024-01-07T01:29:24;39.97;;;22.55;;
24483;SDS011;12643;51.620;7.548;2024-01-07T01:31:52;41.78;;;21.83;;
24483;SDS011;12643;51.620;7.548;2024-01-07T01:34:21;40.15;;;21.88;;
24483;SDS011;12643;51.620;7.548;2024-01-07T01:36:49;38.47;;;22.02;;
24483;SDS011;12643;51.620;7.548;2024-01-07T01:39:21;39.88;;;20.88;;
24483;SDS011;12643;51.620;7.548;2024-01-07T01:41:54;37.28;;;20.63;;
24483;SDS011;12643;51.620;7.548;2024-01-07T01:44:24;33.40;;;19.00;;
24483;SDS011;12643;51.620;7.548;2024-01-07T01:46:53;35.83;;;20.13;;
24483;SDS011;12643;51.620;7.548;2024-01-07T01:49:22;31.58;;;19.13;;
24483;SDS011;12643;51.620;7.548;2024-01-07T01:51:51;33.33;;;19.60;;
24483;SDS011;12643;51.620;7.548;2024-01-07T01:54:20;35.33;;;21.00;;
24483;SDS011;12643;51.620;7.548;2024-01-07T01:56:50;32.17;;;20.38;;
24483;SDS011;12643;51.620;7.548;2024-01-07T01:59:19;35.63;;;20.17;;
24483;SDS011;12643;51.620;7.548;2024-01-07T02:01:50;37.30;;;22.17;;
24483;SDS011;12643;51.620;7.548;2024-01-07T02:04:18;36.55;;;20.23;;
24483;SDS011;12643;51.620;7.548;2024-01-07T02:06:46;36.30;;;20.92;;
24483;SDS011;12643;51.620;7.548;2024-01-07T02:09:15;30.15;;;19.23;;
24483;SDS011;12643;51.620;7.548;2024-01-07T02:11:48;31.27;;;19.33;;
24483;SDS011;12643;51.620;7.548;2024-01-07T02:14:32;30.15;;;17.65;;
24483;SDS011;12643;51.620;7.548;2024-01-07T02:17:00;32.45;;;19.00;;
24483;SDS011;12643;51.620;7.548;2024-01-07T02:19:29;32.28;;;18.73;;
24483;SDS011;12643;51.620;7.548;2024-01-07T02:21:57;28.13;;;18.33;;
24483;SDS011;12643;51.620;7.548;2024-01-07T02:24:28;26.88;;;17.05;;
24483;SDS011;12643;51.620;7.548;2024-01-07T02:26:59;27.92;;;18.25;;
24483;SDS011;12643;51.620;7.548;2024-01-07T02:29:28;26.98;;;17.25;;
24483;SDS011;12643;51.620;7.548;2024-01-07T02:31:56;22.85;;;15.32;;
24483;SDS011;12643;51.620;7.548;2024-01-07T02:34:30;26.02;;;16.02;;
24483;SDS011;12643;51.620;7.548;2024-01-07T02:36:59;24.67;;;16.48;;
24483;SDS011;12643;51.620;7.548;2024-01-07T02:39:40;24.02;;;16.27;;
24483;SDS011;12643;51.620;7.548;2024-01-07T02:42:10;25.33;;;16.20;;
24483;SDS011;12643;51.620;7.548;2024-01-07T02:44:38;28.90;;;16.67;;
24483;SDS011;12643;51.620;7.548;2024-01-07T02:47:07;22.70;;;14.63;;
24483;SDS011;12643;51.620;7.548;2024-01-07T02:49:42;26.92;;;17.08;;
24483;SDS011;12643;51.620;7.548;2024-01-07T02:52:10;22.38;;;15.73;;
24483;SDS011;12643;51.620;7.548;2024-01-07T02:54:40;24.92;;;15.90;;
24483;SDS011;12643;51.620;7.548;2024-01-07T02:57:09;24.23;;;15.77;;
24483;SDS011;12643;51.620;7.548;2024-01-07T02:59:37;24.60;;;15.40;;
24483;SDS011;12643;51.620;7.548;2024-01-07T03:02:06;26.20;;;15.95;;
24483;SDS011;12643;51.620;7.548;2024-01-07T03:04:35;24.92;;;15.07;;
24483;SDS011;12643;51.620;7.548;2024-01-07T03:07:03;28.58;;;16.80;;
24483;SDS011;12643;51.620;7.548;2024-01-07T03:09:35;27.20;;;16.88;;
24483;SDS011;12643;51.620;7.548;2024-01-07T03:12:06;26.08;;;17.20;;
24483;SDS011;12643;51.620;7.548;2024-01-07T03:14:34;26.23;;;16.33;;
24483;SDS011;12643;51.620;7.548;2024-01-07T03:17:03;27.50;;;16.92;;
24483;SDS011;12643;51.620;7.548;2024-01-07T03:19:32;30.00;;;17.30;;
24483;SDS011;12643;51.620;7.548;2024-01-07T03:22:00;29.48;;;17.30;;
24483;SDS011;12643;51.620;7.548;2024-01-07T03:24:29;31.63;;;17.30;;
24483;SDS011;12643;51.620;7.548;2024-01-07T03:26:57;26.10;;;15.20;;
24483;SDS011;12643;51.620;7.548;2024-01-07T03:29:28;29.58;;;18.10;;
24483;SDS011;12643;51.620;7.548;2024-01-07T03:31:57;29.45;;;17.30;;
24483;SDS011;12643;51.620;7.548;2024-01-07T03:34:25;27.30;;;16.98;;
24483;SDS011;12643;51.620;7.548;2024-01-07T03:36:54;29.40;;;17.35;;
24483;SDS011;12643;51.620;7.548;2024-01-07T03:39:25;30.23;;;16.08;;
24483;SDS011;12643;51.620;7.548;2024-01-07T03:41:57;27.48;;;16.67;;
24483;SDS011;12643;51.620;7.548;2024-01-07T03:44:30;30.10;;;16.70;;
24483;SDS011;12643;51.620;7.548;2024-01-07T03:46:58;25.40;;;15.95;;
24483;SDS011;12643;51.620;7.548;2024-01-07T03:49:31;26.83;;;16.80;;
24483;SDS011;12643;51.620;7.548;2024-01-07T03:52:00;29.73;;;16.50;;
24483;SDS011;12643;51.620;7.548;2024-01-07T03:54:32;30.70;;;17.15;;
24483;SDS011;12643;51.620;7.548;2024-01-07T03:57:03;26.63;;;16.08;;
24483;SDS011;12643;51.620;7.548;2024-01-07T03:59:34;27.98;;;15.43;;
24483;SDS011;12643;51.620;7.548;2024-01-07T04:02:06;28.80;;;16.40;;
24483;SDS011;12643;51.620;7.548;2024-01-07T04:04:37;27.92;;;16.77;;
24483;SDS011;12643;51.620;7.548;2024-01-07T04:07:08;29.25;;;16.63;;
24483;SDS011;12643;51.620;7.548;2024-01-07T04:09:44;25.80;;;16.15;;
24483;SDS011;12643;51.620;7.548;2024-01-07T04:12:13;26.23;;;15.63;;
24483;SDS011;12643;51.620;7.548;2024-01-07T04:14:46;26.17;;;16.58;;
24483;SDS011;12643;51.620;7.548;2024-01-07T04:17:15;27.83;;;15.98;;
24483;SDS011;12643;51.620;7.548;2024-01-07T04:19:46;27.00;;;16.33;;
24483;SDS011;12643;51.620;7.548;2024-01-07T04:22:14;27.33;;;16.80;;
24483;SDS011;12643;51.620;7.548;2024-01-07T04:24:46;27.60;;;16.80;;
24483;SDS011;12643;51.620;7.548;2024-01-07T04:27:15;27.13;;;16.67;;
24483;SDS011;12643;51.620;7.548;2024-01-07T04:32:27;32.60;;;17.48;;
24483;SDS011;12643;51.620;7.548;2024-01-07T04:35:02;26.30;;;15.48;;
24483;SDS011;12643;51.620;7.548;2024-01-07T04:37:37;29.88;;;16.75;;
24483;SDS011;12643;51.620;7.548;2024-01-07T04:40:10;28.80;;;16.30;;
24483;SDS011;12643;51.620;7.548;2024-01-07T04:42:39;29.60;;;16.75;;
24483;SDS011;12643;51.620;7.548;2024-01-07T04:45:10;32.50;;;16.60;;
24483;SDS011;12643;51.620;7.548;2024-01-07T04:47:42;30.85;;;16.85;;
24483;SDS011;12643;51.620;7.548;2024-01-07T04:50:14;25.60;;;16.38;;
24483;SDS011;12643;51.620;7.548;2024-01-07T04:52:46;28.13;;;17.45;;
24483;SDS011;12643;51.620;7.548;2024-01-07T04:55:15;30.02;;;18.35;;
24483;SDS011;12643;51.620;7.548;2024-01-07T04:57:44;29.52;;;18.35;;
24483;SDS011;12643;51.620;7.548;2024-01-07T05:00:18;30.42;;;18.73;;
24483;SDS011;12643;51.620;7.548;2024-01-07T05:02:50;28.50;;;17.42;;
24483;SDS011;12643;51.620;7.548;2024-01-07T05:05:19;31.90;;;18.05;;
24483;SDS011;12643;51.620;7.548;2024-01-07T05:07:50;32.97;;;18.88;;
24483;SDS011;12643;51.620;7.548;2024-01-07T05:10:21;30.95;;;18.15;;
24483;SDS011;12643;51.620;7.548;2024-01-07T05:15:19;31.13;;;19.15;;
24483;SDS011;12643;51.620;7.548;2024-01-07T05:17:48;31.03;;;19.13;;
24483;SDS011;12643;51.620;7.548;2024-01-07T05:20:17;33.67;;;19.15;;
24483;SDS011;12643;51.620;7.548;2024-01-07T05:22:46;29.88;;;18.83;;
24483;SDS011;12643;51.620;7.548;2024-01-07T05:25:18;32.88;;;19.40;;
24483;SDS011;12643;51.620;7.548;2024-01-07T05:27:47;33.45;;;20.63;;
24483;SDS011;12643;51.620;7.548;2024-01-07T05:30:17;36.45;;;20.60;;
24483;SDS011;12643;51.620;7.548;2024-01-07T05:32:48;35.03;;;19.88;;
24483;SDS011;12643;51.620;7.548;2024-01-07T05:35:23;33.40;;;19.45;;
24483;SDS011;12643;51.620;7.548;2024-01-07T05:37:55;33.42;;;18.77;;
24483;SDS011;12643;51.620;7.548;2024-01-07T05:40:24;34.90;;;20.17;;
24483;SDS011;12643;51.620;7.548;2024-01-07T05:42:53;33.08;;;19.55;;
24483;SDS011;12643;51.620;7.548;2024-01-07T05:45:25;36.08;;;19.90;;
24483;SDS011;12643;51.620;7.548;2024-01-07T05:47:59;33.60;;;19.13;;
24483;SDS011;12643;51.620;7.548;2024-01-07T05:50:30;32.85;;;19.67;;
24483;SDS011;12643;51.620;7.548;2024-01-07T05:53:05;34.10;;;17.92;;
24483;SDS011;12643;51.620;7.548;2024-01-07T05:55:34;30.30;;;19.52;;
24483;SDS011;12643;51.620;7.548;2024-01-07T05:58:03;37.50;;;21.08;;
24483;SDS011;12643;51.620;7.548;2024-01-07T06:00:33;34.38;;;19.75;;
24483;SDS011;12643;51.620;7.548;2024-01-07T06:03:01;31.48;;;19.17;;
24483;SDS011;12643;51.620;7.548;2024-01-07T06:05:37;33.97;;;19.30;;
24483;SDS011;12643;51.620;7.548;2024-01-07T06:08:06;32.37;;;19.23;;
24483;SDS011;12643;51.620;7.548;2024-01-07T06:13:20;32.05;;;18.52;;
24483;SDS011;12643;51.620;7.548;2024-01-07T06:15:51;30.33;;;18.27;;
24483;SDS011;12643;51.620;7.548;2024-01-07T06:18:20;31.75;;;18.25;;
24483;SDS011;12643;51.620;7.548;2024-01-07T06:20:49;30.17;;;16.95;;
24483;SDS011;12643;51.620;7.548;2024-01-07T06:23:17;26.88;;;16.48;;
24483;SDS011;12643;51.620;7.548;2024-01-07T06:25:46;31.42;;;17.80;;
24483;SDS011;12643;51.620;7.548;2024-01-07T06:28:15;25.83;;;15.98;;
24483;SDS011;12643;51.620;7.548;2024-01-07T06:30:44;25.77;;;15.50;;
24483;SDS011;12643;51.620;7.548;2024-01-07T06:33:14;29.45;;;15.95;;
24483;SDS011;12643;51.620;7.548;2024-01-07T06:35:44;23.20;;;14.00;;
24483;SDS011;12643;51.620;7.548;2024-01-07T06:38:12;21.58;;;13.68;;
24483;SDS011;12643;51.620;7.548;2024-01-07T06:40:41;16.98;;;11.50;;
24483;SDS011;12643;51.620;7.548;2024-01-07T06:43:10;17.77;;;11.27;;
24483;SDS011;12643;51.620;7.548;2024-01-07T06:45:39;19.40;;;11.82;;
24483;SDS011;12643;51.620;7.548;2024-01-07T06:48:09;19.25;;;12.35;;
24483;SDS011;12643;51.620;7.548;2024-01-07T06:50:42;19.48;;;11.95;;
24483;SDS011;12643;51.620;7.548;2024-01-07T06:53:15;21.77;;;12.30;;
24483;SDS011;12643;51.620;7.548;2024-01-07T06:55:47;23.77;;;13.40;;
24483;SDS011;12643;51.620;7.548;2024-01-07T06:58:16;22.40;;;13.27;;
24483;SDS011;12643;51.620;7.548;2024-01-07T07:00:47;22.50;;;13.02;;
24483;SDS011;12643;51.620;7.548;2024-01-07T07:03:17;19.95;;;13.13;;
24483;SDS011;12643;51.620;7.548;2024-01-07T07:05:46;21.58;;;13.98;;
24483;SDS011;12643;51.620;7.548;2024-01-07T07:08:14;19.92;;;12.95;;
24483;SDS011;12643;51.620;7.548;2024-01-07T07:10:43;20.67;;;12.80;;
24483;SDS011;12643;51.620;7.548;2024-01-07T07:13:15;20.55;;;13.38;;
24483;SDS011;12643;51.620;7.548;2024-01-07T07:15:44;24.60;;;14.10;;
24483;SDS011;12643;51.620;7.548;2024-01-07T07:18:13;22.58;;;12.63;;
24483;SDS011;12643;51.620;7.548;2024-01-07T07:20:42;21.55;;;13.70;;
24483;SDS011;12643;51.620;7.548;2024-01-07T07:23:12;25.35;;;14.02;;
24483;SDS011;12643;51.620;7.548;2024-01-07T07:25:42;25.40;;;14.88;;
24483;SDS011;12643;51.620;7.548;2024-01-07T07:28:13;25.52;;;13.77;;
24483;SDS011;12643;51.620;7.548;2024-01-07T07:30:43;27.10;;;16.42;;
24483;SDS011;12643;51.620;7.548;2024-01-07T07:33:11;24.60;;;15.43;;
24483;SDS011;12643;51.620;7.548;2024-01-07T07:35:41;24.80;;;14.70;;
24483;SDS011;12643;51.620;7.548;2024-01-07T07:38:19;24.52;;;15.25;;
24483;SDS011;12643;51.620;7.548;2024-01-07T07:40:53;22.52;;;14.68;;
